sensor_id;sensor_type;location;lat;lon;timestamp;P1;durP1;ratioP1;P2;durP2;ratioP2
2257;SDS011;1136;51.574;7.706;2022-09-21T00:03:35;5.50;;;4.77;;
2257;SDS011;1136;51.574;7.706;2022-09-21T00:06:05;7.20;;;5.70;;
2257;SDS011;1136;51.574;7.706;2022-09-21T00:08:36;6.40;;;5.80;;
2257;SDS011;1136;51.574;7.706;2022-09-21T00:11:03;6.13;;;5.60;;
2257;SDS011;1136;51.574;7.706;2022-09-21T00:13:31;7.27;;;5.37;;
2257;SDS011;1136;51.574;7.706;2022-09-21T00:15:59;5.87;;;5.23;;
2257;SDS011;1136;51.574;7.706;2022-09-21T00:18:26;5.63;;;5.13;;
2257;SDS011;1136;51.574;7.706;2022-09-21T00:20:53;7.37;;;6.00;;
2257;SDS011;1136;51.574;7.706;2022-09-21T00:23:19;5.67;;;5.17;;
2257;SDS011;1136;51.574;7.706;2022-09-21T00:25:46;9.73;;;5.60;;
2257;SDS011;1136;51.574;7.706;2022-09-21T00:28:12;5.23;;;4.83;;
2257;SDS011;1136;51.574;7.706;2022-09-21T00:30:40;6.70;;;5.87;;
2257;SDS011;1136;51.574;7.706;2022-09-21T00:33:07;6.10;;;5.60;;
2257;SDS011;1136;51.574;7.706;2022-09-21T00:35:33;8.73;;;5.67;;
2257;SDS011;1136;51.574;7.706;2022-09-21T00:38:01;6.50;;;5.90;;
2257;SDS011;1136;51.574;7.706;2022-09-21T00:40:28;6.43;;;5.93;;
2257;SDS011;1136;51.574;7.706;2022-09-21T00:43:11;7.33;;;6.50;;
2257;SDS011;1136;51.574;7.706;2022-09-21T00:45:39;7.20;;;6.57;;
2257;SDS011;1136;51.574;7.706;2022-09-21T00:48:06;7.77;;;6.70;;
2257;SDS011;1136;51.574;7.706;2022-09-21T00:50:33;6.43;;;5.80;;
2257;SDS011;1136;51.574;7.706;2022-09-21T00:53:01;10.10;;;6.73;;
2257;SDS011;1136;51.574;7.706;2022-09-21T00:55:38;6.23;;;5.73;;
2257;SDS011;1136;51.574;7.706;2022-09-21T00:58:12;7.00;;;6.07;;
2257;SDS011;1136;51.574;7.706;2022-09-21T01:00:43;6.23;;;5.47;;
2257;SDS011;1136;51.574;7.706;2022-09-21T01:03:09;6.40;;;5.60;;
2257;SDS011;1136;51.574;7.706;2022-09-21T01:05:37;5.97;;;5.10;;
2257;SDS011;1136;51.574;7.706;2022-09-21T01:08:04;7.13;;;6.40;;
2257;SDS011;1136;51.574;7.706;2022-09-21T01:13:40;7.13;;;6.10;;
2257;SDS011;1136;51.574;7.706;2022-09-21T01:16:31;7.43;;;6.70;;
2257;SDS011;1136;51.574;7.706;2022-09-21T01:30:18;8.20;;;6.63;;
2257;SDS011;1136;51.574;7.706;2022-09-21T01:32:54;6.43;;;5.80;;
2257;SDS011;1136;51.574;7.706;2022-09-21T01:35:33;5.50;;;5.03;;
2257;SDS011;1136;51.574;7.706;2022-09-21T01:38:07;5.73;;;4.97;;
2257;SDS011;1136;51.574;7.706;2022-09-21T01:40:44;5.60;;;5.07;;
2257;SDS011;1136;51.574;7.706;2022-09-21T01:43:39;6.43;;;5.27;;
2257;SDS011;1136;51.574;7.706;2022-09-21T01:46:06;6.97;;;6.27;;
2257;SDS011;1136;51.574;7.706;2022-09-21T01:48:38;9.23;;;6.40;;
2257;SDS011;1136;51.574;7.706;2022-09-21T01:51:08;5.97;;;5.47;;
2257;SDS011;1136;51.574;7.706;2022-09-21T01:53:38;6.67;;;5.93;;
2257;SDS011;1136;51.574;7.706;2022-09-21T01:56:09;10.30;;;7.30;;
2257;SDS011;1136;51.574;7.706;2022-09-21T02:01:20;8.20;;;6.73;;
2257;SDS011;1136;51.574;7.706;2022-09-21T02:03:50;8.10;;;5.60;;
2257;SDS011;1136;51.574;7.706;2022-09-21T02:06:18;6.73;;;5.60;;
2257;SDS011;1136;51.574;7.706;2022-09-21T02:08:45;6.30;;;5.73;;
2257;SDS011;1136;51.574;7.706;2022-09-21T02:11:12;5.53;;;5.13;;
2257;SDS011;1136;51.574;7.706;2022-09-21T02:13:40;6.27;;;5.50;;
2257;SDS011;1136;51.574;7.706;2022-09-21T02:27:14;6.03;;;4.80;;
2257;SDS011;1136;51.574;7.706;2022-09-21T02:32:27;6.70;;;5.17;;
2257;SDS011;1136;51.574;7.706;2022-09-21T02:43:47;12.60;;;5.10;;
2257;SDS011;1136;51.574;7.706;2022-09-21T02:46:23;5.53;;;5.03;;
2257;SDS011;1136;51.574;7.706;2022-09-21T02:48:54;7.20;;;5.70;;
2257;SDS011;1136;51.574;7.706;2022-09-21T02:51:36;5.87;;;5.23;;
2257;SDS011;1136;51.574;7.706;2022-09-21T02:54:07;5.77;;;5.23;;
2257;SDS011;1136;51.574;7.706;2022-09-21T02:56:37;5.60;;;5.10;;
2257;SDS011;1136;51.574;7.706;2022-09-21T02:59:04;5.83;;;4.93;;
2257;SDS011;1136;51.574;7.706;2022-09-21T03:01:31;7.83;;;5.93;;
2257;SDS011;1136;51.574;7.706;2022-09-21T03:03:58;6.70;;;6.10;;
2257;SDS011;1136;51.574;7.706;2022-09-21T03:06:25;8.10;;;5.73;;
2257;SDS011;1136;51.574;7.706;2022-09-21T03:08:52;5.60;;;5.20;;
2257;SDS011;1136;51.574;7.706;2022-09-21T03:11:18;5.93;;;5.40;;
2257;SDS011;1136;51.574;7.706;2022-09-21T03:13:45;11.80;;;5.23;;
2257;SDS011;1136;51.574;7.706;2022-09-21T03:16:12;5.73;;;5.20;;
2257;SDS011;1136;51.574;7.706;2022-09-21T03:18:38;6.07;;;5.47;;
2257;SDS011;1136;51.574;7.706;2022-09-21T03:21:10;6.03;;;5.47;;
2257;SDS011;1136;51.574;7.706;2022-09-21T03:23:39;10.27;;;6.20;;
2257;SDS011;1136;51.574;7.706;2022-09-21T03:26:05;9.70;;;5.80;;
2257;SDS011;1136;51.574;7.706;2022-09-21T03:28:32;8.83;;;6.40;;
2257;SDS011;1136;51.574;7.706;2022-09-21T03:30:59;5.83;;;5.20;;
2257;SDS011;1136;51.574;7.706;2022-09-21T03:33:26;6.40;;;5.80;;
2257;SDS011;1136;51.574;7.706;2022-09-21T03:35:52;7.13;;;5.20;;
2257;SDS011;1136;51.574;7.706;2022-09-21T03:38:19;7.67;;;6.07;;
2257;SDS011;1136;51.574;7.706;2022-09-21T03:40:47;6.67;;;5.07;;
2257;SDS011;1136;51.574;7.706;2022-09-21T03:43:14;5.73;;;5.17;;
2257;SDS011;1136;51.574;7.706;2022-09-21T03:45:42;9.10;;;5.47;;
2257;SDS011;1136;51.574;7.706;2022-09-21T03:48:09;8.20;;;5.83;;
2257;SDS011;1136;51.574;7.706;2022-09-21T03:50:37;8.13;;;5.60;;
2257;SDS011;1136;51.574;7.706;2022-09-21T03:53:04;7.77;;;5.20;;
2257;SDS011;1136;51.574;7.706;2022-09-21T03:55:31;7.70;;;5.63;;
2257;SDS011;1136;51.574;7.706;2022-09-21T03:57:58;7.10;;;5.80;;
2257;SDS011;1136;51.574;7.706;2022-09-21T04:00:24;9.60;;;7.17;;
2257;SDS011;1136;51.574;7.706;2022-09-21T04:02:51;7.10;;;6.50;;
2257;SDS011;1136;51.574;7.706;2022-09-21T04:05:18;7.53;;;6.33;;
2257;SDS011;1136;51.574;7.706;2022-09-21T04:07:44;11.03;;;6.90;;
2257;SDS011;1136;51.574;7.706;2022-09-21T04:10:12;7.60;;;6.60;;
2257;SDS011;1136;51.574;7.706;2022-09-21T04:12:40;8.73;;;6.80;;
2257;SDS011;1136;51.574;7.706;2022-09-21T04:15:12;7.90;;;6.10;;
2257;SDS011;1136;51.574;7.706;2022-09-21T04:17:39;7.00;;;6.30;;
2257;SDS011;1136;51.574;7.706;2022-09-21T04:20:07;7.27;;;6.57;;
2257;SDS011;1136;51.574;7.706;2022-09-21T04:22:34;7.57;;;6.73;;
2257;SDS011;1136;51.574;7.706;2022-09-21T04:25:08;10.53;;;6.60;;
2257;SDS011;1136;51.574;7.706;2022-09-21T04:27:35;8.93;;;7.17;;
2257;SDS011;1136;51.574;7.706;2022-09-21T04:30:02;9.47;;;6.80;;
2257;SDS011;1136;51.574;7.706;2022-09-21T04:32:30;10.70;;;6.80;;
2257;SDS011;1136;51.574;7.706;2022-09-21T04:34:56;8.53;;;6.60;;
2257;SDS011;1136;51.574;7.706;2022-09-21T04:37:23;11.20;;;7.63;;
2257;SDS011;1136;51.574;7.706;2022-09-21T04:39:49;10.10;;;7.47;;
2257;SDS011;1136;51.574;7.706;2022-09-21T04:42:16;11.70;;;8.70;;
2257;SDS011;1136;51.574;7.706;2022-09-21T04:44:43;10.50;;;8.73;;
2257;SDS011;1136;51.574;7.706;2022-09-21T04:47:09;10.90;;;7.43;;
2257;SDS011;1136;51.574;7.706;2022-09-21T04:49:36;11.23;;;5.93;;
2257;SDS011;1136;51.574;7.706;2022-09-21T04:52:03;10.33;;;7.70;;
2257;SDS011;1136;51.574;7.706;2022-09-21T04:54:31;16.20;;;7.00;;
2257;SDS011;1136;51.574;7.706;2022-09-21T04:56:57;18.13;;;6.90;;
2257;SDS011;1136;51.574;7.706;2022-09-21T04:59:24;9.63;;;8.20;;
2257;SDS011;1136;51.574;7.706;2022-09-21T05:01:50;8.73;;;7.50;;
2257;SDS011;1136;51.574;7.706;2022-09-21T05:04:17;6.90;;;6.20;;
2257;SDS011;1136;51.574;7.706;2022-09-21T05:06:43;6.87;;;6.17;;
2257;SDS011;1136;51.574;7.706;2022-09-21T05:09:10;9.20;;;6.60;;
2257;SDS011;1136;51.574;7.706;2022-09-21T05:11:55;13.00;;;8.30;;
2257;SDS011;1136;51.574;7.706;2022-09-21T05:14:22;13.43;;;9.67;;
2257;SDS011;1136;51.574;7.706;2022-09-21T05:16:49;12.40;;;11.10;;
2257;SDS011;1136;51.574;7.706;2022-09-21T05:19:16;14.17;;;10.07;;
2257;SDS011;1136;51.574;7.706;2022-09-21T05:21:42;12.80;;;11.50;;
2257;SDS011;1136;51.574;7.706;2022-09-21T05:24:09;15.53;;;13.50;;
2257;SDS011;1136;51.574;7.706;2022-09-21T05:26:36;16.70;;;13.50;;
2257;SDS011;1136;51.574;7.706;2022-09-21T05:29:03;16.63;;;12.00;;
2257;SDS011;1136;51.574;7.706;2022-09-21T05:37:39;11.17;;;8.67;;
2257;SDS011;1136;51.574;7.706;2022-09-21T05:40:19;11.27;;;9.33;;
2257;SDS011;1136;51.574;7.706;2022-09-21T05:42:46;21.20;;;13.83;;
2257;SDS011;1136;51.574;7.706;2022-09-21T05:45:14;14.70;;;10.77;;
2257;SDS011;1136;51.574;7.706;2022-09-21T05:56:34;14.33;;;10.30;;
2257;SDS011;1136;51.574;7.706;2022-09-21T05:59:11;15.30;;;9.90;;
2257;SDS011;1136;51.574;7.706;2022-09-21T06:04:32;19.73;;;10.40;;
2257;SDS011;1136;51.574;7.706;2022-09-21T06:06:59;13.03;;;9.17;;
2257;SDS011;1136;51.574;7.706;2022-09-21T06:09:26;15.30;;;10.80;;
2257;SDS011;1136;51.574;7.706;2022-09-21T06:11:53;13.63;;;10.40;;
2257;SDS011;1136;51.574;7.706;2022-09-21T06:14:19;14.40;;;9.10;;
2257;SDS011;1136;51.574;7.706;2022-09-21T06:16:50;15.27;;;9.07;;
2257;SDS011;1136;51.574;7.706;2022-09-21T06:19:17;12.67;;;9.27;;
2257;SDS011;1136;51.574;7.706;2022-09-21T06:21:44;15.87;;;8.20;;
2257;SDS011;1136;51.574;7.706;2022-09-21T06:24:11;9.67;;;8.67;;
2257;SDS011;1136;51.574;7.706;2022-09-21T06:26:37;10.70;;;9.27;;
2257;SDS011;1136;51.574;7.706;2022-09-21T06:29:04;9.77;;;8.73;;
2257;SDS011;1136;51.574;7.706;2022-09-21T06:31:30;10.23;;;8.20;;
2257;SDS011;1136;51.574;7.706;2022-09-21T06:33:57;15.50;;;10.60;;
2257;SDS011;1136;51.574;7.706;2022-09-21T06:36:24;18.07;;;10.10;;
2257;SDS011;1136;51.574;7.706;2022-09-21T06:38:50;11.57;;;9.43;;
2257;SDS011;1136;51.574;7.706;2022-09-21T06:41:17;13.13;;;9.27;;
2257;SDS011;1136;51.574;7.706;2022-09-21T06:43:46;13.00;;;9.27;;
2257;SDS011;1136;51.574;7.706;2022-09-21T06:46:13;11.13;;;9.13;;
2257;SDS011;1136;51.574;7.706;2022-09-21T06:48:40;14.60;;;10.07;;
2257;SDS011;1136;51.574;7.706;2022-09-21T06:51:06;12.00;;;8.77;;
2257;SDS011;1136;51.574;7.706;2022-09-21T06:53:33;13.23;;;8.50;;
2257;SDS011;1136;51.574;7.706;2022-09-21T06:56:06;11.67;;;8.50;;
2257;SDS011;1136;51.574;7.706;2022-09-21T06:58:34;10.80;;;8.50;;
2257;SDS011;1136;51.574;7.706;2022-09-21T07:01:03;10.27;;;8.00;;
2257;SDS011;1136;51.574;7.706;2022-09-21T07:03:34;9.93;;;8.67;;
2257;SDS011;1136;51.574;7.706;2022-09-21T07:06:01;9.60;;;7.53;;
2257;SDS011;1136;51.574;7.706;2022-09-21T07:08:27;7.30;;;6.60;;
2257;SDS011;1136;51.574;7.706;2022-09-21T07:11:14;10.27;;;7.57;;
2257;SDS011;1136;51.574;7.706;2022-09-21T07:13:41;8.77;;;6.47;;
2257;SDS011;1136;51.574;7.706;2022-09-21T07:16:08;8.60;;;7.33;;
2257;SDS011;1136;51.574;7.706;2022-09-21T07:18:35;8.83;;;7.33;;
2257;SDS011;1136;51.574;7.706;2022-09-21T07:21:09;7.60;;;6.30;;
2257;SDS011;1136;51.574;7.706;2022-09-21T07:23:36;8.63;;;7.37;;
2257;SDS011;1136;51.574;7.706;2022-09-21T07:26:07;8.40;;;6.60;;
2257;SDS011;1136;51.574;7.706;2022-09-21T07:28:36;12.23;;;6.93;;
2257;SDS011;1136;51.574;7.706;2022-09-21T07:31:07;8.80;;;7.60;;
2257;SDS011;1136;51.574;7.706;2022-09-21T07:33:35;13.50;;;8.07;;
2257;SDS011;1136;51.574;7.706;2022-09-21T07:36:03;10.73;;;8.37;;
2257;SDS011;1136;51.574;7.706;2022-09-21T07:38:36;8.90;;;7.93;;
2257;SDS011;1136;51.574;7.706;2022-09-21T07:41:05;10.43;;;7.10;;
2257;SDS011;1136;51.574;7.706;2022-09-21T07:43:33;9.83;;;7.47;;
2257;SDS011;1136;51.574;7.706;2022-09-21T07:46:37;10.10;;;8.40;;
2257;SDS011;1136;51.574;7.706;2022-09-21T07:49:53;9.70;;;8.80;;
2257;SDS011;1136;51.574;7.706;2022-09-21T07:52:20;8.57;;;7.67;;
2257;SDS011;1136;51.574;7.706;2022-09-21T07:54:47;9.53;;;7.83;;
2257;SDS011;1136;51.574;7.706;2022-09-21T07:57:14;11.47;;;7.70;;
2257;SDS011;1136;51.574;7.706;2022-09-21T07:59:59;9.27;;;8.33;;
2257;SDS011;1136;51.574;7.706;2022-09-21T08:02:25;14.23;;;7.87;;
2257;SDS011;1136;51.574;7.706;2022-09-21T08:04:52;8.03;;;7.30;;
2257;SDS011;1136;51.574;7.706;2022-09-21T08:07:20;11.30;;;8.50;;
2257;SDS011;1136;51.574;7.706;2022-09-21T08:09:46;10.80;;;9.00;;
2257;SDS011;1136;51.574;7.706;2022-09-21T08:12:14;10.60;;;8.17;;
2257;SDS011;1136;51.574;7.706;2022-09-21T08:14:44;12.97;;;8.67;;
2257;SDS011;1136;51.574;7.706;2022-09-21T08:17:10;9.50;;;7.07;;
2257;SDS011;1136;51.574;7.706;2022-09-21T08:19:37;9.57;;;6.93;;
2257;SDS011;1136;51.574;7.706;2022-09-21T08:22:04;8.57;;;7.67;;
2257;SDS011;1136;51.574;7.706;2022-09-21T08:24:31;7.03;;;5.77;;
2257;SDS011;1136;51.574;7.706;2022-09-21T08:26:58;10.37;;;6.93;;
2257;SDS011;1136;51.574;7.706;2022-09-21T08:29:25;8.83;;;6.57;;
2257;SDS011;1136;51.574;7.706;2022-09-21T08:31:52;7.97;;;6.97;;
2257;SDS011;1136;51.574;7.706;2022-09-21T08:34:19;9.93;;;6.83;;
2257;SDS011;1136;51.574;7.706;2022-09-21T08:36:45;7.50;;;6.53;;
2257;SDS011;1136;51.574;7.706;2022-09-21T08:39:18;11.27;;;7.60;;
2257;SDS011;1136;51.574;7.706;2022-09-21T08:44:39;11.93;;;8.33;;
2257;SDS011;1136;51.574;7.706;2022-09-21T08:47:27;12.37;;;5.83;;
2257;SDS011;1136;51.574;7.706;2022-09-21T08:50:22;7.30;;;6.30;;
2257;SDS011;1136;51.574;7.706;2022-09-21T08:53:11;7.13;;;6.13;;
2257;SDS011;1136;51.574;7.706;2022-09-21T08:55:40;10.37;;;5.63;;
2257;SDS011;1136;51.574;7.706;2022-09-21T08:58:23;6.87;;;5.17;;
2257;SDS011;1136;51.574;7.706;2022-09-21T09:00:56;6.10;;;4.73;;
2257;SDS011;1136;51.574;7.706;2022-09-21T09:06:45;4.90;;;4.40;;
2257;SDS011;1136;51.574;7.706;2022-09-21T09:14:54;4.60;;;3.90;;
2257;SDS011;1136;51.574;7.706;2022-09-21T09:22:31;4.70;;;4.20;;
2257;SDS011;1136;51.574;7.706;2022-09-21T09:25:06;4.73;;;3.80;;
2257;SDS011;1136;51.574;7.706;2022-09-21T09:27:42;4.57;;;3.77;;
2257;SDS011;1136;51.574;7.706;2022-09-21T09:30:20;7.20;;;3.33;;
2257;SDS011;1136;51.574;7.706;2022-09-21T09:32:55;4.70;;;3.03;;
2257;SDS011;1136;51.574;7.706;2022-09-21T09:35:26;5.50;;;3.90;;
2257;SDS011;1136;51.574;7.706;2022-09-21T09:38:01;7.17;;;3.60;;
2257;SDS011;1136;51.574;7.706;2022-09-21T09:43:24;7.20;;;3.23;;
2257;SDS011;1136;51.574;7.706;2022-09-21T09:46:42;5.97;;;3.43;;
2257;SDS011;1136;51.574;7.706;2022-09-21T09:52:19;5.67;;;2.97;;
2257;SDS011;1136;51.574;7.706;2022-09-21T09:54:45;3.50;;;2.53;;
2257;SDS011;1136;51.574;7.706;2022-09-21T09:57:13;4.20;;;2.67;;
2257;SDS011;1136;51.574;7.706;2022-09-21T09:59:42;2.53;;;2.33;;
2257;SDS011;1136;51.574;7.706;2022-09-21T10:02:22;4.10;;;2.90;;
2257;SDS011;1136;51.574;7.706;2022-09-21T10:05:00;3.07;;;2.77;;
2257;SDS011;1136;51.574;7.706;2022-09-21T10:07:38;6.80;;;3.80;;
2257;SDS011;1136;51.574;7.706;2022-09-21T10:15:58;2.93;;;2.60;;
2257;SDS011;1136;51.574;7.706;2022-09-21T10:21:04;4.03;;;2.93;;
2257;SDS011;1136;51.574;7.706;2022-09-21T10:23:32;3.23;;;3.03;;
2257;SDS011;1136;51.574;7.706;2022-09-21T10:26:06;6.07;;;2.93;;
2257;SDS011;1136;51.574;7.706;2022-09-21T10:28:34;5.47;;;2.90;;
2257;SDS011;1136;51.574;7.706;2022-09-21T10:31:12;3.33;;;2.70;;
2257;SDS011;1136;51.574;7.706;2022-09-21T10:33:48;2.90;;;2.57;;
2257;SDS011;1136;51.574;7.706;2022-09-21T10:36:38;3.40;;;2.60;;
2257;SDS011;1136;51.574;7.706;2022-09-21T10:42:33;2.37;;;2.00;;
2257;SDS011;1136;51.574;7.706;2022-09-21T10:44:41;2.87;;;1.90;;
2257;SDS011;1136;51.574;7.706;2022-09-21T10:47:19;3.30;;;2.20;;
2257;SDS011;1136;51.574;7.706;2022-09-21T10:49:51;2.57;;;1.70;;
2257;SDS011;1136;51.574;7.706;2022-09-21T10:52:24;1.83;;;1.73;;
2257;SDS011;1136;51.574;7.706;2022-09-21T10:55:06;1.77;;;1.67;;
2257;SDS011;1136;51.574;7.706;2022-09-21T10:57:40;2.00;;;1.90;;
2257;SDS011;1136;51.574;7.706;2022-09-21T11:02:47;4.63;;;2.17;;
2257;SDS011;1136;51.574;7.706;2022-09-21T11:05:20;2.40;;;2.20;;
2257;SDS011;1136;51.574;7.706;2022-09-21T11:07:52;2.60;;;2.40;;
2257;SDS011;1136;51.574;7.706;2022-09-21T11:10:28;3.63;;;2.17;;
2257;SDS011;1136;51.574;7.706;2022-09-21T11:13:08;3.50;;;1.60;;
2257;SDS011;1136;51.574;7.706;2022-09-21T11:16:15;1.90;;;1.70;;
2257;SDS011;1136;51.574;7.706;2022-09-21T11:18:56;1.90;;;1.63;;
2257;SDS011;1136;51.574;7.706;2022-09-21T11:24:06;1.70;;;1.60;;
2257;SDS011;1136;51.574;7.706;2022-09-21T11:26:43;3.40;;;1.90;;
2257;SDS011;1136;51.574;7.706;2022-09-21T11:29:14;1.97;;;1.50;;
2257;SDS011;1136;51.574;7.706;2022-09-21T11:34:28;1.80;;;1.70;;
2257;SDS011;1136;51.574;7.706;2022-09-21T11:45:10;2.20;;;2.00;;
2257;SDS011;1136;51.574;7.706;2022-09-21T11:47:49;3.57;;;2.60;;
2257;SDS011;1136;51.574;7.706;2022-09-21T11:53:01;2.30;;;2.10;;
2257;SDS011;1136;51.574;7.706;2022-09-21T11:58:33;2.20;;;2.00;;
2257;SDS011;1136;51.574;7.706;2022-09-21T12:04:14;2.00;;;1.90;;
2257;SDS011;1136;51.574;7.706;2022-09-21T12:07:04;2.20;;;1.90;;
2257;SDS011;1136;51.574;7.706;2022-09-21T12:17:31;1.77;;;1.67;;
2257;SDS011;1136;51.574;7.706;2022-09-21T12:22:58;1.83;;;1.60;;
2257;SDS011;1136;51.574;7.706;2022-09-21T12:25:27;2.00;;;1.37;;
2257;SDS011;1136;51.574;7.706;2022-09-21T12:28:02;2.80;;;1.33;;
2257;SDS011;1136;51.574;7.706;2022-09-21T12:30:38;1.50;;;1.20;;
2257;SDS011;1136;51.574;7.706;2022-09-21T12:33:10;3.33;;;1.60;;
2257;SDS011;1136;51.574;7.706;2022-09-21T12:35:48;1.83;;;1.27;;
2257;SDS011;1136;51.574;7.706;2022-09-21T12:38:26;2.23;;;1.30;;
2257;SDS011;1136;51.574;7.706;2022-09-21T12:41:08;1.67;;;1.47;;
2257;SDS011;1136;51.574;7.706;2022-09-21T12:43:43;1.83;;;1.67;;
2257;SDS011;1136;51.574;7.706;2022-09-21T12:46:32;1.60;;;1.33;;
2257;SDS011;1136;51.574;7.706;2022-09-21T12:49:13;2.97;;;2.07;;
2257;SDS011;1136;51.574;7.706;2022-09-21T12:51:44;4.43;;;1.50;;
2257;SDS011;1136;51.574;7.706;2022-09-21T12:57:19;2.17;;;1.43;;
2257;SDS011;1136;51.574;7.706;2022-09-21T13:00:21;1.83;;;1.40;;
2257;SDS011;1136;51.574;7.706;2022-09-21T13:03:12;1.80;;;1.50;;
2257;SDS011;1136;51.574;7.706;2022-09-21T13:05:55;2.07;;;1.20;;
2257;SDS011;1136;51.574;7.706;2022-09-21T13:08:44;4.97;;;1.30;;
2257;SDS011;1136;51.574;7.706;2022-09-21T13:11:12;1.70;;;1.30;;
2257;SDS011;1136;51.574;7.706;2022-09-21T13:13:43;1.90;;;1.27;;
2257;SDS011;1136;51.574;7.706;2022-09-21T13:18:56;2.60;;;2.00;;
2257;SDS011;1136;51.574;7.706;2022-09-21T13:21:29;2.20;;;1.47;;
2257;SDS011;1136;51.574;7.706;2022-09-21T13:26:39;1.70;;;1.23;;
2257;SDS011;1136;51.574;7.706;2022-09-21T13:44:55;1.77;;;1.30;;
2257;SDS011;1136;51.574;7.706;2022-09-21T13:47:29;1.60;;;1.10;;
2257;SDS011;1136;51.574;7.706;2022-09-21T13:49:58;1.73;;;1.33;;
2257;SDS011;1136;51.574;7.706;2022-09-21T13:52:42;4.90;;;1.30;;
2257;SDS011;1136;51.574;7.706;2022-09-21T13:55:18;1.80;;;1.13;;
2257;SDS011;1136;51.574;7.706;2022-09-21T13:57:47;2.67;;;1.50;;
2257;SDS011;1136;51.574;7.706;2022-09-21T14:02:43;1.37;;;1.00;;
2257;SDS011;1136;51.574;7.706;2022-09-21T14:05:24;2.37;;;1.40;;
2257;SDS011;1136;51.574;7.706;2022-09-21T14:08:05;2.77;;;1.10;;
2257;SDS011;1136;51.574;7.706;2022-09-21T14:10:50;2.60;;;1.07;;
2257;SDS011;1136;51.574;7.706;2022-09-21T14:13:24;1.67;;;1.00;;
2257;SDS011;1136;51.574;7.706;2022-09-21T14:15:51;3.73;;;1.63;;
2257;SDS011;1136;51.574;7.706;2022-09-21T14:18:19;6.17;;;1.40;;
2257;SDS011;1136;51.574;7.706;2022-09-21T14:21:06;2.03;;;1.10;;
2257;SDS011;1136;51.574;7.706;2022-09-21T14:23:34;3.80;;;1.03;;
2257;SDS011;1136;51.574;7.706;2022-09-21T14:26:18;1.37;;;1.00;;
2257;SDS011;1136;51.574;7.706;2022-09-21T14:29:27;2.23;;;1.03;;
2257;SDS011;1136;51.574;7.706;2022-09-21T14:31:58;2.00;;;1.17;;
2257;SDS011;1136;51.574;7.706;2022-09-21T14:34:27;2.50;;;1.30;;
2257;SDS011;1136;51.574;7.706;2022-09-21T14:36:57;3.17;;;1.57;;
2257;SDS011;1136;51.574;7.706;2022-09-21T14:39:27;1.10;;;0.90;;
2257;SDS011;1136;51.574;7.706;2022-09-21T14:42:06;2.43;;;0.90;;
2257;SDS011;1136;51.574;7.706;2022-09-21T14:44:37;3.53;;;1.00;;
2257;SDS011;1136;51.574;7.706;2022-09-21T14:53:04;1.60;;;1.20;;
2257;SDS011;1136;51.574;7.706;2022-09-21T14:55:48;1.53;;;1.30;;
2257;SDS011;1136;51.574;7.706;2022-09-21T15:04:28;1.90;;;1.03;;
2257;SDS011;1136;51.574;7.706;2022-09-21T15:07:15;2.20;;;1.17;;
2257;SDS011;1136;51.574;7.706;2022-09-21T15:16:10;1.10;;;0.80;;
2257;SDS011;1136;51.574;7.706;2022-09-21T15:18:58;1.60;;;1.10;;
2257;SDS011;1136;51.574;7.706;2022-09-21T15:21:30;1.27;;;1.03;;
2257;SDS011;1136;51.574;7.706;2022-09-21T15:23:58;6.13;;;1.47;;
2257;SDS011;1136;51.574;7.706;2022-09-21T15:26:30;1.00;;;0.90;;
2257;SDS011;1136;51.574;7.706;2022-09-21T15:28:59;3.03;;;1.17;;
2257;SDS011;1136;51.574;7.706;2022-09-21T15:31:38;1.83;;;1.03;;
2257;SDS011;1136;51.574;7.706;2022-09-21T15:34:06;2.20;;;1.43;;
2257;SDS011;1136;51.574;7.706;2022-09-21T15:36:37;2.20;;;1.13;;
2257;SDS011;1136;51.574;7.706;2022-09-21T15:39:05;2.23;;;0.93;;
2257;SDS011;1136;51.574;7.706;2022-09-21T15:41:44;1.30;;;0.90;;
2257;SDS011;1136;51.574;7.706;2022-09-21T15:44:23;2.23;;;1.00;;
2257;SDS011;1136;51.574;7.706;2022-09-21T15:46:52;4.20;;;1.10;;
2257;SDS011;1136;51.574;7.706;2022-09-21T15:49:23;1.60;;;1.50;;
2257;SDS011;1136;51.574;7.706;2022-09-21T15:51:54;3.03;;;1.20;;
2257;SDS011;1136;51.574;7.706;2022-09-21T15:54:30;2.20;;;1.13;;
2257;SDS011;1136;51.574;7.706;2022-09-21T15:57:00;1.40;;;1.00;;
2257;SDS011;1136;51.574;7.706;2022-09-21T15:59:33;1.60;;;1.23;;
2257;SDS011;1136;51.574;7.706;2022-09-21T16:02:10;4.00;;;1.07;;
2257;SDS011;1136;51.574;7.706;2022-09-21T16:04:38;1.97;;;1.00;;
2257;SDS011;1136;51.574;7.706;2022-09-21T16:07:33;1.40;;;1.30;;
2257;SDS011;1136;51.574;7.706;2022-09-21T16:10:02;1.57;;;1.00;;
2257;SDS011;1136;51.574;7.706;2022-09-21T16:12:37;1.30;;;1.00;;
2257;SDS011;1136;51.574;7.706;2022-09-21T16:17:57;3.27;;;1.50;;
2257;SDS011;1136;51.574;7.706;2022-09-21T16:23:25;3.93;;;1.40;;
2257;SDS011;1136;51.574;7.706;2022-09-21T16:25:56;4.60;;;1.40;;
2257;SDS011;1136;51.574;7.706;2022-09-21T16:31:22;3.77;;;1.60;;
2257;SDS011;1136;51.574;7.706;2022-09-21T16:33:58;1.40;;;1.13;;
2257;SDS011;1136;51.574;7.706;2022-09-21T16:38:59;2.10;;;1.40;;
2257;SDS011;1136;51.574;7.706;2022-09-21T16:41:35;3.27;;;1.67;;
2257;SDS011;1136;51.574;7.706;2022-09-21T16:44:03;4.90;;;1.70;;
2257;SDS011;1136;51.574;7.706;2022-09-21T16:46:30;3.23;;;2.20;;
2257;SDS011;1136;51.574;7.706;2022-09-21T16:48:57;5.90;;;4.40;;
2257;SDS011;1136;51.574;7.706;2022-09-21T16:51:26;7.13;;;2.70;;
2257;SDS011;1136;51.574;7.706;2022-09-21T16:53:54;2.60;;;1.90;;
2257;SDS011;1136;51.574;7.706;2022-09-21T16:56:21;3.50;;;1.90;;
2257;SDS011;1136;51.574;7.706;2022-09-21T16:58:48;6.27;;;2.63;;
2257;SDS011;1136;51.574;7.706;2022-09-21T17:01:16;3.10;;;2.70;;
2257;SDS011;1136;51.574;7.706;2022-09-21T17:03:47;2.67;;;2.47;;
2257;SDS011;1136;51.574;7.706;2022-09-21T17:06:14;2.40;;;1.73;;
2257;SDS011;1136;51.574;7.706;2022-09-21T17:08:46;3.53;;;1.70;;
2257;SDS011;1136;51.574;7.706;2022-09-21T17:11:16;2.97;;;2.13;;
2257;SDS011;1136;51.574;7.706;2022-09-21T17:13:50;2.50;;;1.83;;
2257;SDS011;1136;51.574;7.706;2022-09-21T17:16:17;3.60;;;2.07;;
2257;SDS011;1136;51.574;7.706;2022-09-21T17:18:48;3.90;;;2.00;;
2257;SDS011;1136;51.574;7.706;2022-09-21T17:21:14;3.63;;;1.50;;
2257;SDS011;1136;51.574;7.706;2022-09-21T17:23:41;4.20;;;2.27;;
2257;SDS011;1136;51.574;7.706;2022-09-21T17:26:10;2.27;;;1.60;;
2257;SDS011;1136;51.574;7.706;2022-09-21T17:28:40;4.03;;;1.70;;
2257;SDS011;1136;51.574;7.706;2022-09-21T17:31:09;3.00;;;1.93;;
2257;SDS011;1136;51.574;7.706;2022-09-21T17:33:37;4.83;;;3.73;;
2257;SDS011;1136;51.574;7.706;2022-09-21T17:36:04;8.77;;;5.80;;
2257;SDS011;1136;51.574;7.706;2022-09-21T17:38:32;15.90;;;10.13;;
2257;SDS011;1136;51.574;7.706;2022-09-21T17:41:05;13.00;;;8.83;;
2257;SDS011;1136;51.574;7.706;2022-09-21T17:43:40;19.73;;;15.63;;
2257;SDS011;1136;51.574;7.706;2022-09-21T17:46:13;7.30;;;5.93;;
2257;SDS011;1136;51.574;7.706;2022-09-21T17:48:54;6.10;;;2.00;;
2257;SDS011;1136;51.574;7.706;2022-09-21T17:51:21;3.23;;;2.27;;
2257;SDS011;1136;51.574;7.706;2022-09-21T17:54:06;10.57;;;3.97;;
2257;SDS011;1136;51.574;7.706;2022-09-21T17:59:43;5.87;;;4.50;;
2257;SDS011;1136;51.574;7.706;2022-09-21T18:02:10;5.60;;;5.10;;
2257;SDS011;1136;51.574;7.706;2022-09-21T18:04:48;8.20;;;7.40;;
2257;SDS011;1136;51.574;7.706;2022-09-21T18:07:16;11.53;;;10.53;;
2257;SDS011;1136;51.574;7.706;2022-09-21T18:09:44;9.10;;;8.30;;
2257;SDS011;1136;51.574;7.706;2022-09-21T18:17:49;4.67;;;3.97;;
2257;SDS011;1136;51.574;7.706;2022-09-21T18:23:08;5.63;;;4.23;;
2257;SDS011;1136;51.574;7.706;2022-09-21T18:25:43;5.37;;;4.50;;
2257;SDS011;1136;51.574;7.706;2022-09-21T18:28:19;12.57;;;10.17;;
2257;SDS011;1136;51.574;7.706;2022-09-21T18:36:32;24.60;;;21.50;;
2257;SDS011;1136;51.574;7.706;2022-09-21T18:45:17;40.90;;;30.00;;
2257;SDS011;1136;51.574;7.706;2022-09-21T18:50:38;38.77;;;26.80;;
2257;SDS011;1136;51.574;7.706;2022-09-21T18:53:14;30.13;;;24.60;;
2257;SDS011;1136;51.574;7.706;2022-09-21T18:55:43;22.73;;;19.03;;
2257;SDS011;1136;51.574;7.706;2022-09-21T18:58:10;22.47;;;19.30;;
2257;SDS011;1136;51.574;7.706;2022-09-21T19:00:47;27.80;;;23.80;;
2257;SDS011;1136;51.574;7.706;2022-09-21T19:03:15;26.30;;;19.97;;
2257;SDS011;1136;51.574;7.706;2022-09-21T19:31:10;9.97;;;9.00;;
2257;SDS011;1136;51.574;7.706;2022-09-21T19:33:38;10.63;;;7.73;;
2257;SDS011;1136;51.574;7.706;2022-09-21T19:36:20;9.80;;;7.83;;